Terminal Aerodrome Forecast
Issued by NWS

Home | Current Version | Previous Version | Text Only | Print | Product List | Glossary On
Versions: 1 2 3 4 5 6 7 8 9 10 11 12 13 14 15 16 17 18 19
000
FTUS45 KLKN 192320
TAFTPH
TAF
KTPH 192320Z 2000/2024 17010KT P6SM FEW015 BKN035
      TEMPO 2000/2002 BKN025
     FM200200 16006KT P6SM BKN025 OVC080
      TEMPO 2008/2012 1/2SM FG BKN005
     FM201800 17016KT P6SM VCSH SCT015 OVC025=

USA.gov is the U.S. government's official web portal to all federal, state and local government web resources and services.